Claxton — WCU9257 — position and weather

sailwx.info

Track history (hours):
 
Tides and Currents Weather Stations Pressure Air Temp Water Temp Dewpoint Dewpoint Depression Visibility Wind Speed Wind Dir Waves Ship Positions

Claxton

Owner: G & H TOWING COMPANY, GALVESTON, TX. More information available from US FCC via Universal Licensing System and Coast Guard Vessel Documentation Center.

Last reported at 2017-Oct-18 05:24 UTC. Time now 2017-Oct-19 01:42 UTC.
Position N 29°32' W 094°54'.

Length 27 m; draft 4.9 m.

Type: Tug. MMSI: 366921670.

Date/timePositionNaut miles runAvg speedWind from/ knotsBaromVisibWave heightAir tempDewpointWater temp
2017-Oct-18 05:24N 29°32' W 094°54'4 9.0
2017-Oct-18 05:00N 29°35' W 094°56'5 9.5
2017-Oct-18 04:30N 29°39' W 094°58'4 8.6
2017-Oct-18 04:00N 29°43' W 095°01'4 7.5
2017-Oct-18 03:29N 29°45' W 095°04'4 7.3
2017-Oct-18 03:00N 29°44' W 095°08'3 6.7
2017-Oct-18 02:30N 29°44' W 095°12'1 1.1
2017-Oct-18 01:57N 29°45' W 095°11'0 0.0
2017-Oct-18 01:29N 29°45' W 095°11'0 0.6
2017-Oct-18 00:53N 29°45' W 095°11'3 7.7
2017-Oct-18 00:29N 29°44' W 095°07'1 0.1
2017-Oct-17 18:04N 29°44' W 095°08'1 1.0
2017-Oct-17 16:59N 29°44' W 095°09'1 2.2
2017-Oct-17 16:21N 29°44' W 095°08'1 2.0
2017-Oct-17 15:55N 29°44' W 095°07'0 0.0
2017-Oct-17 15:29N 29°44' W 095°07'0 0.0
2017-Oct-17 14:58N 29°44' W 095°07'0 0.0
2017-Oct-17 14:29N 29°44' W 095°07'0 0.0
2017-Oct-17 13:57N 29°44' W 095°07'0 0.0
2017-Oct-17 13:30N 29°44' W 095°07'0 0.0
2017-Oct-17 13:00N 29°44' W 095°07'4 6.3
2017-Oct-17 12:19N 29°45' W 095°12'2 6.7
2017-Oct-17 12:00N 29°44' W 095°14'0 0.3
2017-Oct-17 11:30N 29°43' W 095°14'0 0.7
2017-Oct-17 10:54N 29°43' W 095°14'1 2.1
2017-Oct-17 10:29N 29°44' W 095°13'4 6.7
2017-Oct-17 09:58N 29°44' W 095°09'1 1.6
2017-Oct-17 09:26N 29°44' W 095°09'2 0.7
2017-Oct-17 07:02N 29°44' W 095°07'0 0.4
2017-Oct-17 05:55N 29°44' W 095°07'1 1.8
2017-Oct-17 05:21N 29°44' W 095°09'3 7.9
2017-Oct-17 04:59N 29°45' W 095°12'2 2.8
2017-Oct-17 04:11N 29°43' W 095°14'0 0.0
2017-Oct-17 03:56N 29°43' W 095°14'0 0.0
2017-Oct-17 02:56N 29°43' W 095°14'0 0.0
2017-Oct-17 01:44N 29°43' W 095°14'0 0.0
2017-Oct-17 01:23N 29°43' W 095°14'0 0.0
2017-Oct-17 00:59N 29°43' W 095°14'0 0.0
2017-Oct-17 00:30N 29°43' W 095°14'2 4.0
2017-Oct-17 00:00N 29°45' W 095°12'0 0.1
2017-Oct-16 23:30N 29°44' W 095°12'2 4.6
2017-Oct-16 22:59N 29°44' W 095°09'2 1.4
2017-Oct-16 21:22N 29°44' W 095°07'3 0.5
2017-Oct-16 15:00N 29°45' W 095°10'2 2.9
2017-Oct-16 14:08N 29°44' W 095°07'0 0.1
2017-Oct-16 10:48N 29°44' W 095°08'2 0.3
2017-Oct-16 05:29N 29°44' W 095°09'1 0.2
2017-Oct-15 22:15N 29°45' W 095°11'8 0.8
2017-Oct-15 11:43N 29°44' W 095°01'2 3.7
2017-Oct-15 11:19N 29°42' W 095°01'0 0.6
2017-Oct-15 10:49N 29°42' W 095°01'0 0.0
2017-Oct-15 09:49N 29°42' W 095°01'0 0.0
2017-Oct-15 09:19N 29°42' W 095°01'0 0.0
2017-Oct-15 09:00N 29°42' W 095°01'1 1.2
2017-Oct-15 07:47N 29°44' W 095°01'0 0.3
2017-Oct-15 07:16N 29°44' W 095°01'2 7.9
2017-Oct-15 06:58N 29°45' W 095°04'3 1.9
2017-Oct-15 05:37N 29°44' W 095°07'1 0.8
2017-Oct-15 03:54N 29°44' W 095°08'3 0.5
2017-Oct-14 22:27N 29°45' W 095°11'0 0.0
2017-Oct-14 21:57N 29°45' W 095°11'0 0.1
2017-Oct-14 21:27N 29°45' W 095°11'2 4.7
2017-Oct-14 20:58N 29°44' W 095°09'2 0.5
2017-Oct-14 17:08N 29°44' W 095°07'1 8.1
2017-Oct-14 16:59N 29°44' W 095°08'3 5.6
2017-Oct-14 16:26N 29°45' W 095°11'4 3.4
2017-Oct-14 15:16N 29°44' W 095°07'1 0.3
2017-Oct-14 12:50N 29°44' W 095°08'1 2.4
2017-Oct-14 12:26N 29°45' W 095°07'0 0.0
2017-Oct-14 06:57N 29°44' W 095°07'1 1.5
2017-Oct-14 06:30N 29°44' W 095°07'0 0.2
2017-Oct-14 05:56N 29°44' W 095°07'1 2.3
2017-Oct-14 05:25N 29°45' W 095°06'1 0.1
2017-Oct-14 00:05N 29°44' W 095°07'0 1.3
2017-Oct-13 23:44N 29°44' W 095°07'0 0.0
2017-Oct-13 23:25N 29°44' W 095°07'1 0.1
2017-Oct-13 14:55N 29°44' W 095°07'0 0.0
2017-Oct-13 10:31N 29°44' W 095°07'0 0.1
2017-Oct-13 08:57N 29°44' W 095°07'0 0.2
2017-Oct-13 08:30N 29°44' W 095°07'0 0.0
2017-Oct-13 06:39N 29°44' W 095°07'0 0.0
2017-Oct-13 06:24N 29°44' W 095°07'0 0.0
2017-Oct-13 05:27N 29°44' W 095°07'0 0.0
2017-Oct-13 04:48N 29°44' W 095°07'0 0.0
2017-Oct-12 14:14N 29°44' W 095°07'0 0.0
2017-Oct-12 11:54N 29°44' W 095°07'2 5.7
2017-Oct-12 11:30N 29°44' W 095°09'2 3.3
2017-Oct-12 11:00N 29°45' W 095°11'0 0.1
2017-Oct-12 05:42N 29°45' W 095°10'1 5.4
2017-Oct-12 05:30N 29°44' W 095°09'1 0.7
2017-Oct-12 04:40N 29°45' W 095°10'0 0.7
2017-Oct-12 04:22N 29°45' W 095°10'0 1.4
2017-Oct-12 04:00N 29°44' W 095°10'0 0.0
2017-Oct-12 03:29N 29°44' W 095°10'1 2.4
2017-Oct-12 03:00N 29°44' W 095°09'2 2.2
2017-Oct-12 02:13N 29°45' W 095°07'0 0.0
2017-Oct-12 01:56N 29°45' W 095°07'0 0.0
2017-Oct-12 01:29N 29°45' W 095°07'0 0.0
2017-Oct-12 00:56N 29°45' W 095°07'1 1.0
2017-Oct-12 00:22N 29°45' W 095°06'0 0.5
2017-Oct-12 00:00N 29°45' W 095°06'1 0.1
2017-Oct-11 18:43N 29°45' W 095°06'7 0.4
2017-Oct-10 23:43N 29°44' W 095°14'1 1.7
2017-Oct-10 23:23N 29°43' W 095°14'0 0.0
2017-Oct-10 22:57N 29°43' W 095°14'2 3.7
2017-Oct-10 22:29N 29°44' W 095°12'1 0.9
2017-Oct-10 21:05N 29°45' W 095°11'0 0.9
2017-Oct-10 20:54N 29°45' W 095°11'4 0.5
2017-Oct-10 13:46N 29°44' W 095°07'1 1.2
2017-Oct-10 13:09N 29°44' W 095°07'1 0.7
2017-Oct-10 12:21N 29°44' W 095°07'0 0.2
2017-Oct-10 10:40N 29°45' W 095°06'5 5.7
2017-Oct-10 09:45N 29°42' W 095°01'2 7.3
2017-Oct-10 09:29N 29°41' W 094°59'1 1.4
2017-Oct-10 09:00N 29°41' W 094°60'2 3.4
2017-Oct-10 08:30N 29°42' W 095°01'7 2.1
2017-Oct-10 05:12N 29°44' W 095°09'2 1.0
2017-Oct-10 02:58N 29°45' W 095°11'4 6.9
2017-Oct-10 02:22N 29°44' W 095°16'0 0.1
2017-Oct-10 00:00N 29°44' W 095°16'0 0.1
2017-Oct-09 23:14N 29°44' W 095°16'0 0.3
2017-Oct-09 23:00N 29°44' W 095°16'0 0.2
2017-Oct-09 22:30N 29°44' W 095°16'2 3.2
2017-Oct-09 21:48N 29°44' W 095°14'1 2.7
2017-Oct-09 21:26N 29°44' W 095°12'1 0.8
2017-Oct-09 20:44N 29°44' W 095°12'2 7.9
2017-Oct-09 20:30N 29°45' W 095°10'2 0.9
2017-Oct-09 17:39N 29°44' W 095°07'2 8.1
2017-Oct-09 17:26N 29°44' W 095°09'2 2.2
2017-Oct-09 16:33N 29°45' W 095°12'0 8.3
2017-Oct-09 16:30N 29°44' W 095°12'1 2.1
2017-Oct-09 15:51N 29°44' W 095°13'0 0.0
2017-Oct-09 15:27N 29°44' W 095°13'1 0.9
2017-Oct-09 14:04N 29°44' W 095°12'0 0.2
2017-Oct-09 13:14N 29°44' W 095°12'1 2.6
2017-Oct-09 12:59N 29°45' W 095°12'0 0.5
2017-Oct-09 12:22N 29°45' W 095°11'3 7.6
2017-Oct-09 11:57N 29°43' W 095°14'1 0.2
2017-Oct-09 05:35N 29°44' W 095°16'0 0.0
2017-Oct-09 05:23N 29°44' W 095°16'0 0.0
2017-Oct-09 04:56N 29°44' W 095°16'0 0.0
2017-Oct-09 04:08N 29°44' W 095°16'0 0.0
2017-Oct-09 03:56N 29°44' W 095°16'0 0.0
2017-Oct-09 03:17N 29°44' W 095°16'0 0.0
2017-Oct-09 02:59N 29°44' W 095°16'0 0.0
2017-Oct-09 02:23N 29°44' W 095°16'1 3.3
2017-Oct-09 02:00N 29°43' W 095°15'0 0.1
2017-Oct-09 01:31N 29°43' W 095°15'1 2.0
2017-Oct-09 00:57N 29°44' W 095°16'0 0.2
2017-Oct-09 00:31N 29°43' W 095°16'0 0.4
2017-Oct-08 23:59N 29°44' W 095°16'1 2.4
2017-Oct-08 23:30N 29°43' W 095°14'2 4.2
2017-Oct-08 22:58N 29°44' W 095°12'0 0.0
2017-Oct-08 22:29N 29°44' W 095°12'0 0.0
2017-Oct-08 21:55N 29°44' W 095°12'0 0.0
2017-Oct-08 21:29N 29°44' W 095°12'0 0.0
2017-Oct-08 20:57N 29°44' W 095°12'0 0.0
2017-Oct-08 20:29N 29°44' W 095°12'0 0.0
2017-Oct-08 19:59N 29°44' W 095°12'0 0.0
2017-Oct-08 19:29N 29°44' W 095°12'0 0.0
2017-Oct-08 18:57N 29°44' W 095°12'0 0.0
2017-Oct-08 18:30N 29°44' W 095°12'1 2.7
2017-Oct-08 17:58N 29°44' W 095°14'1 0.9
2017-Oct-08 17:05N 29°43' W 095°14'0 1.1
2017-Oct-08 17:00N 29°43' W 095°14'1 1.3
2017-Oct-08 16:21N 29°44' W 095°13'1 3.2
2017-Oct-08 15:56N 29°44' W 095°12'0 0.0
2017-Oct-08 15:29N 29°44' W 095°12'0 0.0
2017-Oct-08 14:08N 29°44' W 095°12'0 0.1
2017-Oct-08 13:59N 29°44' W 095°12'2 4.8
2017-Oct-08 13:30N 29°43' W 095°15'2 3.3
2017-Oct-08 13:00N 29°44' W 095°16'0 0.5
2017-Oct-08 12:30N 29°44' W 095°16'3 6.3
2017-Oct-08 11:58N 29°44' W 095°12'0 0.3
2017-Oct-08 11:27N 29°44' W 095°12'0 0.0
2017-Oct-08 11:00N 29°44' W 095°12'0 0.0
2017-Oct-08 10:27N 29°44' W 095°12'0 0.0
2017-Oct-08 10:00N 29°44' W 095°12'0 0.0
2017-Oct-08 09:24N 29°44' W 095°12'0 0.0
2017-Oct-08 09:00N 29°44' W 095°12'0 0.0
2017-Oct-08 08:30N 29°44' W 095°12'0 0.0
2017-Oct-08 07:54N 29°44' W 095°12'0 0.0
2017-Oct-08 07:30N 29°44' W 095°12'0 0.0
2017-Oct-08 07:00N 29°44' W 095°12'0 0.0
2017-Oct-08 06:27N 29°44' W 095°12'0 0.0
2017-Oct-08 05:59N 29°44' W 095°12'  
Track history (hours):
 
Tides and Currents Weather Stations Pressure Air Temp Water Temp Dewpoint Dewpoint Depression Visibility Wind Speed Wind Dir Waves Ship Positions

Claxton

Owner: G & H TOWING COMPANY, GALVESTON, TX. More information available from US FCC via Universal Licensing System and Coast Guard Vessel Documentation Center.

Last reported at 2017-Oct-18 05:24 UTC. Time now 2017-Oct-19 01:42 UTC.
Position N 29°32' W 094°54'.

Length 27 m; draft 4.9 m.

Type: Tug. MMSI: 366921670.

Date/timePositionNaut miles runAvg speedWind from/ knotsBaromVisibWave heightAir tempDewpointWater temp
2017-Oct-18 05:24N 29°32' W 094°54'4 9.0
2017-Oct-18 05:00N 29°35' W 094°56'5 9.5
2017-Oct-18 04:30N 29°39' W 094°58'4 8.6
2017-Oct-18 04:00N 29°43' W 095°01'4 7.5
2017-Oct-18 03:29N 29°45' W 095°04'4 7.3
2017-Oct-18 03:00N 29°44' W 095°08'3 6.7
2017-Oct-18 02:30N 29°44' W 095°12'1 1.1
2017-Oct-18 01:57N 29°45' W 095°11'0 0.0
2017-Oct-18 01:29N 29°45' W 095°11'0 0.6
2017-Oct-18 00:53N 29°45' W 095°11'3 7.7
2017-Oct-18 00:29N 29°44' W 095°07'1 0.1
2017-Oct-17 18:04N 29°44' W 095°08'1 1.0
2017-Oct-17 16:59N 29°44' W 095°09'1 2.2
2017-Oct-17 16:21N 29°44' W 095°08'1 2.0
2017-Oct-17 15:55N 29°44' W 095°07'0 0.0
2017-Oct-17 15:29N 29°44' W 095°07'0 0.0
2017-Oct-17 14:58N 29°44' W 095°07'0 0.0
2017-Oct-17 14:29N 29°44' W 095°07'0 0.0
2017-Oct-17 13:57N 29°44' W 095°07'0 0.0
2017-Oct-17 13:30N 29°44' W 095°07'0 0.0
2017-Oct-17 13:00N 29°44' W 095°07'4 6.3
2017-Oct-17 12:19N 29°45' W 095°12'2 6.7
2017-Oct-17 12:00N 29°44' W 095°14'0 0.3
2017-Oct-17 11:30N 29°43' W 095°14'0 0.7
2017-Oct-17 10:54N 29°43' W 095°14'1 2.1
2017-Oct-17 10:29N 29°44' W 095°13'4 6.7
2017-Oct-17 09:58N 29°44' W 095°09'1 1.6
2017-Oct-17 09:26N 29°44' W 095°09'2 0.7
2017-Oct-17 07:02N 29°44' W 095°07'0 0.4
2017-Oct-17 05:55N 29°44' W 095°07'1 1.8
2017-Oct-17 05:21N 29°44' W 095°09'3 7.9
2017-Oct-17 04:59N 29°45' W 095°12'2 2.8
2017-Oct-17 04:11N 29°43' W 095°14'0 0.0
2017-Oct-17 03:56N 29°43' W 095°14'0 0.0
2017-Oct-17 02:56N 29°43' W 095°14'0 0.0
2017-Oct-17 01:44N 29°43' W 095°14'0 0.0
2017-Oct-17 01:23N 29°43' W 095°14'0 0.0
2017-Oct-17 00:59N 29°43' W 095°14'0 0.0
2017-Oct-17 00:30N 29°43' W 095°14'2 4.0
2017-Oct-17 00:00N 29°45' W 095°12'0 0.1
2017-Oct-16 23:30N 29°44' W 095°12'2 4.6
2017-Oct-16 22:59N 29°44' W 095°09'2 1.4
2017-Oct-16 21:22N 29°44' W 095°07'3 0.5
2017-Oct-16 15:00N 29°45' W 095°10'2 2.9
2017-Oct-16 14:08N 29°44' W 095°07'0 0.1
2017-Oct-16 10:48N 29°44' W 095°08'2 0.3
2017-Oct-16 05:29N 29°44' W 095°09'1 0.2
2017-Oct-15 22:15N 29°45' W 095°11'8 0.8
2017-Oct-15 11:43N 29°44' W 095°01'2 3.7
2017-Oct-15 11:19N 29°42' W 095°01'0 0.6
2017-Oct-15 10:49N 29°42' W 095°01'0 0.0
2017-Oct-15 09:49N 29°42' W 095°01'0 0.0
2017-Oct-15 09:19N 29°42' W 095°01'0 0.0
2017-Oct-15 09:00N 29°42' W 095°01'1 1.2
2017-Oct-15 07:47N 29°44' W 095°01'0 0.3
2017-Oct-15 07:16N 29°44' W 095°01'2 7.9
2017-Oct-15 06:58N 29°45' W 095°04'3 1.9
2017-Oct-15 05:37N 29°44' W 095°07'1 0.8
2017-Oct-15 03:54N 29°44' W 095°08'3 0.5
2017-Oct-14 22:27N 29°45' W 095°11'0 0.0
2017-Oct-14 21:57N 29°45' W 095°11'0 0.1
2017-Oct-14 21:27N 29°45' W 095°11'2 4.7
2017-Oct-14 20:58N 29°44' W 095°09'2 0.5
2017-Oct-14 17:08N 29°44' W 095°07'1 8.1
2017-Oct-14 16:59N 29°44' W 095°08'3 5.6
2017-Oct-14 16:26N 29°45' W 095°11'4 3.4
2017-Oct-14 15:16N 29°44' W 095°07'1 0.3
2017-Oct-14 12:50N 29°44' W 095°08'1 2.4
2017-Oct-14 12:26N 29°45' W 095°07'0 0.0
2017-Oct-14 06:57N 29°44' W 095°07'1 1.5
2017-Oct-14 06:30N 29°44' W 095°07'0 0.2
2017-Oct-14 05:56N 29°44' W 095°07'1 2.3
2017-Oct-14 05:25N 29°45' W 095°06'1 0.1
2017-Oct-14 00:05N 29°44' W 095°07'0 1.3
2017-Oct-13 23:44N 29°44' W 095°07'0 0.0
2017-Oct-13 23:25N 29°44' W 095°07'1 0.1
2017-Oct-13 14:55N 29°44' W 095°07'0 0.0
2017-Oct-13 10:31N 29°44' W 095°07'0 0.1
2017-Oct-13 08:57N 29°44' W 095°07'0 0.2
2017-Oct-13 08:30N 29°44' W 095°07'0 0.0
2017-Oct-13 06:39N 29°44' W 095°07'0 0.0
2017-Oct-13 06:24N 29°44' W 095°07'0 0.0
2017-Oct-13 05:27N 29°44' W 095°07'0 0.0
2017-Oct-13 04:48N 29°44' W 095°07'0 0.0
2017-Oct-12 14:14N 29°44' W 095°07'0 0.0
2017-Oct-12 11:54N 29°44' W 095°07'2 5.7
2017-Oct-12 11:30N 29°44' W 095°09'2 3.3
2017-Oct-12 11:00N 29°45' W 095°11'0 0.1
2017-Oct-12 05:42N 29°45' W 095°10'1 5.4
2017-Oct-12 05:30N 29°44' W 095°09'1 0.7
2017-Oct-12 04:40N 29°45' W 095°10'0 0.7
2017-Oct-12 04:22N 29°45' W 095°10'0 1.4
2017-Oct-12 04:00N 29°44' W 095°10'0 0.0
2017-Oct-12 03:29N 29°44' W 095°10'1 2.4
2017-Oct-12 03:00N 29°44' W 095°09'2 2.2
2017-Oct-12 02:13N 29°45' W 095°07'0 0.0
2017-Oct-12 01:56N 29°45' W 095°07'0 0.0
2017-Oct-12 01:29N 29°45' W 095°07'0 0.0
2017-Oct-12 00:56N 29°45' W 095°07'1 1.0
2017-Oct-12 00:22N 29°45' W 095°06'0 0.5
2017-Oct-12 00:00N 29°45' W 095°06'1 0.1
2017-Oct-11 18:43N 29°45' W 095°06'7 0.4
2017-Oct-10 23:43N 29°44' W 095°14'1 1.7
2017-Oct-10 23:23N 29°43' W 095°14'0 0.0
2017-Oct-10 22:57N 29°43' W 095°14'2 3.7
2017-Oct-10 22:29N 29°44' W 095°12'1 0.9
2017-Oct-10 21:05N 29°45' W 095°11'0 0.9
2017-Oct-10 20:54N 29°45' W 095°11'4 0.5
2017-Oct-10 13:46N 29°44' W 095°07'1 1.2
2017-Oct-10 13:09N 29°44' W 095°07'1 0.7
2017-Oct-10 12:21N 29°44' W 095°07'0 0.2
2017-Oct-10 10:40N 29°45' W 095°06'5 5.7
2017-Oct-10 09:45N 29°42' W 095°01'2 7.3
2017-Oct-10 09:29N 29°41' W 094°59'1 1.4
2017-Oct-10 09:00N 29°41' W 094°60'2 3.4
2017-Oct-10 08:30N 29°42' W 095°01'7 2.1
2017-Oct-10 05:12N 29°44' W 095°09'2 1.0
2017-Oct-10 02:58N 29°45' W 095°11'4 6.9
2017-Oct-10 02:22N 29°44' W 095°16'0 0.1
2017-Oct-10 00:00N 29°44' W 095°16'0 0.1
2017-Oct-09 23:14N 29°44' W 095°16'0 0.3
2017-Oct-09 23:00N 29°44' W 095°16'0 0.2
2017-Oct-09 22:30N 29°44' W 095°16'2 3.2
2017-Oct-09 21:48N 29°44' W 095°14'1 2.7
2017-Oct-09 21:26N 29°44' W 095°12'1 0.8
2017-Oct-09 20:44N 29°44' W 095°12'2 7.9
2017-Oct-09 20:30N 29°45' W 095°10'2 0.9
2017-Oct-09 17:39N 29°44' W 095°07'2 8.1
2017-Oct-09 17:26N 29°44' W 095°09'2 2.2
2017-Oct-09 16:33N 29°45' W 095°12'0 8.3
2017-Oct-09 16:30N 29°44' W 095°12'1 2.1
2017-Oct-09 15:51N 29°44' W 095°13'0 0.0
2017-Oct-09 15:27N 29°44' W 095°13'1 0.9
2017-Oct-09 14:04N 29°44' W 095°12'0 0.2
2017-Oct-09 13:14N 29°44' W 095°12'1 2.6
2017-Oct-09 12:59N 29°45' W 095°12'0 0.5
2017-Oct-09 12:22N 29°45' W 095°11'3 7.6
2017-Oct-09 11:57N 29°43' W 095°14'1 0.2
2017-Oct-09 05:35N 29°44' W 095°16'0 0.0
2017-Oct-09 05:23N 29°44' W 095°16'0 0.0
2017-Oct-09 04:56N 29°44' W 095°16'0 0.0
2017-Oct-09 04:08N 29°44' W 095°16'0 0.0
2017-Oct-09 03:56N 29°44' W 095°16'0 0.0
2017-Oct-09 03:17N 29°44' W 095°16'0 0.0
2017-Oct-09 02:59N 29°44' W 095°16'0 0.0
2017-Oct-09 02:23N 29°44' W 095°16'1 3.3
2017-Oct-09 02:00N 29°43' W 095°15'0 0.1
2017-Oct-09 01:31N 29°43' W 095°15'1 2.0
2017-Oct-09 00:57N 29°44' W 095°16'0 0.2
2017-Oct-09 00:31N 29°43' W 095°16'0 0.4
2017-Oct-08 23:59N 29°44' W 095°16'1 2.4
2017-Oct-08 23:30N 29°43' W 095°14'2 4.2
2017-Oct-08 22:58N 29°44' W 095°12'0 0.0
2017-Oct-08 22:29N 29°44' W 095°12'0 0.0
2017-Oct-08 21:55N 29°44' W 095°12'0 0.0
2017-Oct-08 21:29N 29°44' W 095°12'0 0.0
2017-Oct-08 20:57N 29°44' W 095°12'0 0.0
2017-Oct-08 20:29N 29°44' W 095°12'0 0.0
2017-Oct-08 19:59N 29°44' W 095°12'0 0.0
2017-Oct-08 19:29N 29°44' W 095°12'0 0.0
2017-Oct-08 18:57N 29°44' W 095°12'0 0.0
2017-Oct-08 18:30N 29°44' W 095°12'1 2.7
2017-Oct-08 17:58N 29°44' W 095°14'1 0.9
2017-Oct-08 17:05N 29°43' W 095°14'0 1.1
2017-Oct-08 17:00N 29°43' W 095°14'1 1.3
2017-Oct-08 16:21N 29°44' W 095°13'1 3.2
2017-Oct-08 15:56N 29°44' W 095°12'0 0.0
2017-Oct-08 15:29N 29°44' W 095°12'0 0.0
2017-Oct-08 14:08N 29°44' W 095°12'0 0.1
2017-Oct-08 13:59N 29°44' W 095°12'2 4.8
2017-Oct-08 13:30N 29°43' W 095°15'2 3.3
2017-Oct-08 13:00N 29°44' W 095°16'0 0.5
2017-Oct-08 12:30N 29°44' W 095°16'3 6.3
2017-Oct-08 11:58N 29°44' W 095°12'0 0.3
2017-Oct-08 11:27N 29°44' W 095°12'0 0.0
2017-Oct-08 11:00N 29°44' W 095°12'0 0.0
2017-Oct-08 10:27N 29°44' W 095°12'0 0.0
2017-Oct-08 10:00N 29°44' W 095°12'0 0.0
2017-Oct-08 09:24N 29°44' W 095°12'0 0.0
2017-Oct-08 09:00N 29°44' W 095°12'0 0.0
2017-Oct-08 08:30N 29°44' W 095°12'0 0.0
2017-Oct-08 07:54N 29°44' W 095°12'0 0.0
2017-Oct-08 07:30N 29°44' W 095°12'0 0.0
2017-Oct-08 07:00N 29°44' W 095°12'0 0.0
2017-Oct-08 06:27N 29°44' W 095°12'0 0.0
2017-Oct-08 05:59N 29°44' W 095°12'  

Dump ship's entire track history